Time;durP1;ratioP1;P1;durP2;ratioP2;P2;SDS_P1;SDS_P2;PMS_P1;PMS_P2;Temp;Humidity;BMP_temperature;BMP_pressure;BME280_temperature;BME280_humidity;BME280_pressure;Samples;Min_cycle;Max_cycle;Signal;HPM_P1;HPM_P2
2022/07/08 00:00:13;;;;;;;1.27;0.70;;;25.60;63.80;;;;;;5074440;28;20544;-81
2022/07/08 00:02:40;;;;;;;1.20;0.90;;;25.60;63.70;;;;;;5074571;28;20441;-81
2022/07/08 00:05:07;;;;;;;1.00;0.70;;;25.60;63.70;;;;;;5074455;28;20443;-81
2022/07/08 00:07:35;;;;;;;1.27;0.90;;;25.60;63.80;;;;;;5074305;28;20544;-81
2022/07/08 00:10:03;;;;;;;1.10;0.80;;;25.60;63.80;;;;;;5074368;28;20527;-80
2022/07/08 00:12:30;;;;;;;1.30;0.80;;;25.60;63.60;;;;;;5074620;28;20863;-81
2022/07/08 00:14:57;;;;;;;1.13;0.83;;;25.60;63.80;;;;;;5074028;28;20869;-80
2022/07/08 00:17:24;;;;;;;1.00;0.70;;;25.60;63.90;;;;;;5074282;28;20913;-81
2022/07/08 00:19:50;;;;;;;1.53;0.90;;;25.60;63.80;;;;;;5074151;28;21026;-81
2022/07/08 00:22:17;;;;;;;1.00;0.70;;;25.60;63.70;;;;;;5074130;28;20536;-80
2022/07/08 00:24:45;;;;;;;1.00;0.80;;;25.60;64.00;;;;;;5074134;28;20441;-81
2022/07/08 00:27:13;;;;;;;1.10;0.70;;;25.60;63.80;;;;;;5073940;28;20437;-81
2022/07/08 00:29:40;;;;;;;1.57;0.80;;;25.60;64.10;;;;;;5073824;28;20461;-81
2022/07/08 00:32:07;;;;;;;1.00;0.80;;;25.60;64.10;;;;;;5073943;28;20467;-81
2022/07/08 00:34:34;;;;;;;1.50;0.80;;;25.60;64.50;;;;;;5074030;28;21015;-80
2022/07/08 00:37:01;;;;;;;1.20;0.80;;;25.60;64.20;;;;;;5073837;28;20480;-81
2022/07/08 00:39:28;;;;;;;1.00;0.70;;;25.60;64.20;;;;;;5074162;28;20535;-81
2022/07/08 00:41:56;;;;;;;1.00;0.70;;;25.60;64.10;;;;;;5073639;28;20464;-90
2022/07/08 00:44:23;;;;;;;1.67;0.83;;;25.60;64.30;;;;;;5073699;28;20482;-81
2022/07/08 00:46:50;;;;;;;1.47;0.80;;;25.60;64.50;;;;;;5073764;28;20543;-81
2022/07/08 00:49:17;;;;;;;1.10;0.70;;;25.60;64.30;;;;;;5073619;28;20531;-80
2022/07/08 00:51:46;;;;;;;1.03;0.80;;;25.60;64.40;;;;;;5073812;28;20439;-81
2022/07/08 00:54:15;;;;;;;1.00;0.80;;;25.60;64.40;;;;;;5073713;28;20445;-81
2022/07/08 00:56:42;;;;;;;1.10;0.70;;;25.60;64.40;;;;;;5073572;28;20484;-80
2022/07/08 00:59:10;;;;;;;1.47;1.00;;;25.60;64.50;;;;;;5073401;28;20551;-81
2022/07/08 01:01:37;;;;;;;1.03;0.90;;;25.60;64.50;;;;;;5073482;28;20523;-80
2022/07/08 01:04:05;;;;;;;0.97;0.70;;;25.60;64.40;;;;;;5073354;28;20520;-81
2022/07/08 01:06:32;;;;;;;0.90;0.70;;;25.60;64.60;;;;;;5073240;28;20477;-80
2022/07/08 01:08:59;;;;;;;1.00;0.60;;;25.60;64.80;;;;;;5073293;28;20543;-81
2022/07/08 01:11:26;;;;;;;1.00;0.70;;;25.60;64.70;;;;;;5073358;28;20542;-80
2022/07/08 01:13:54;;;;;;;0.90;0.60;;;25.60;64.90;;;;;;5073396;28;20544;-81
2022/07/08 01:16:22;;;;;;;0.90;0.60;;;25.60;65.00;;;;;;5073445;28;20531;-80
2022/07/08 01:18:49;;;;;;;1.00;0.70;;;25.60;65.00;;;;;;5073047;28;20575;-80
2022/07/08 01:21:17;;;;;;;1.20;0.90;;;25.60;64.90;;;;;;5073284;28;20441;-81
2022/07/08 01:23:44;;;;;;;1.10;0.77;;;25.60;64.80;;;;;;5072977;28;20852;-81
2022/07/08 01:26:13;;;;;;;2.17;1.00;;;25.60;64.80;;;;;;5073265;28;20444;-80
2022/07/08 01:28:42;;;;;;;1.10;0.70;;;25.60;65.70;;;;;;5072924;28;20443;-80
2022/07/08 01:31:09;;;;;;;1.03;0.80;;;25.60;65.00;;;;;;5073126;28;20527;-80
2022/07/08 01:33:36;;;;;;;1.20;0.80;;;25.60;64.80;;;;;;5073066;28;20932;-80
2022/07/08 01:36:03;;;;;;;1.10;0.83;;;25.60;64.90;;;;;;5073071;28;20535;-80
2022/07/08 01:38:31;;;;;;;1.00;0.70;;;25.60;64.80;;;;;;5073044;28;20589;-80
2022/07/08 01:40:58;;;;;;;1.43;1.00;;;25.60;64.90;;;;;;5072898;28;21071;-80
2022/07/08 01:43:25;;;;;;;1.07;0.77;;;25.60;64.70;;;;;;5072993;28;20524;-81
2022/07/08 01:45:52;;;;;;;0.90;0.80;;;25.60;64.80;;;;;;5072892;28;20989;-80
2022/07/08 01:48:18;;;;;;;1.03;0.70;;;25.60;65.00;;;;;;5073012;28;20520;-80
2022/07/08 01:50:45;;;;;;;1.00;0.70;;;25.60;64.80;;;;;;5073069;28;20528;-80
2022/07/08 01:53:12;;;;;;;1.10;0.80;;;25.60;64.90;;;;;;5072968;28;20443;-80
2022/07/08 01:55:41;;;;;;;1.20;0.80;;;25.60;65.00;;;;;;5072875;28;20437;-81
2022/07/08 01:58:08;;;;;;;1.10;0.73;;;25.60;65.00;;;;;;5072725;28;20574;-80
2022/07/08 02:00:35;;;;;;;1.60;0.80;;;25.60;65.10;;;;;;5072755;28;20544;-80
2022/07/08 02:03:01;;;;;;;1.03;0.70;;;25.60;65.10;;;;;;5072901;28;20447;-81
2022/07/08 02:05:29;;;;;;;1.20;0.70;;;25.60;65.10;;;;;;5072767;28;21020;-80
2022/07/08 02:07:55;;;;;;;1.00;0.70;;;25.60;65.10;;;;;;5072883;28;20483;-80
2022/07/08 02:10:22;;;;;;;1.20;1.00;;;25.60;65.20;;;;;;5072646;28;20867;-81
2022/07/08 02:12:50;;;;;;;0.90;0.70;;;25.60;65.10;;;;;;5072801;28;20541;-80
2022/07/08 02:15:17;;;;;;;1.40;0.90;;;25.60;65.10;;;;;;5072845;28;20441;-81
2022/07/08 02:17:45;;;;;;;1.30;0.87;;;25.60;65.10;;;;;;5072647;28;20576;-81
2022/07/08 02:20:13;;;;;;;1.10;0.70;;;25.60;65.20;;;;;;5072707;28;20437;-80
2022/07/08 02:22:40;;;;;;;1.03;0.83;;;25.60;65.20;;;;;;5072756;28;20470;-80
2022/07/08 02:25:08;;;;;;;0.90;0.70;;;25.60;65.30;;;;;;5072740;28;20480;-81
2022/07/08 02:27:35;;;;;;;0.90;0.70;;;25.60;65.10;;;;;;5072633;28;20519;-80
2022/07/08 02:30:04;;;;;;;0.90;0.70;;;25.60;65.20;;;;;;5072592;28;20552;-88
2022/07/08 02:32:31;;;;;;;1.20;0.70;;;25.60;65.20;;;;;;5072483;28;20541;-80
2022/07/08 02:34:58;;;;;;;0.90;0.60;;;25.50;65.10;;;;;;5072517;28;20440;-81
2022/07/08 02:37:26;;;;;;;1.10;0.70;;;25.60;65.30;;;;;;5072526;28;20559;-81
2022/07/08 02:39:53;;;;;;;1.13;0.80;;;25.60;65.30;;;;;;5075843;28;20447;-81
2022/07/08 02:42:19;;;;;;;1.00;0.70;;;25.60;65.20;;;;;;5075914;28;20479;-81
2022/07/08 02:44:46;;;;;;;1.10;0.80;;;25.60;66.00;;;;;;5075974;28;20468;-80
2022/07/08 02:47:15;;;;;;;1.00;0.70;;;25.60;65.20;;;;;;5075885;28;20536;-81
2022/07/08 02:49:41;;;;;;;1.40;0.80;;;25.50;65.90;;;;;;5075981;28;20449;-80
2022/07/08 02:52:08;;;;;;;1.23;0.83;;;25.60;65.20;;;;;;5075797;28;20479;-81
2022/07/08 02:54:35;;;;;;;0.90;0.60;;;25.60;65.20;;;;;;5075866;28;20528;-80
2022/07/08 02:57:02;;;;;;;1.00;0.90;;;25.50;65.10;;;;;;5075860;28;21003;-81
2022/07/08 02:59:29;;;;;;;1.10;0.90;;;25.50;65.10;;;;;;5075648;28;20563;-81
2022/07/08 03:01:56;;;;;;;1.47;0.93;;;25.60;65.20;;;;;;5075809;28;20528;-80
2022/07/08 03:04:24;;;;;;;1.03;0.70;;;25.60;65.20;;;;;;5075639;28;20536;-80
2022/07/08 03:06:51;;;;;;;1.17;0.80;;;25.50;65.10;;;;;;5075745;28;20512;-80
2022/07/08 03:09:18;;;;;;;1.47;0.70;;;25.50;65.10;;;;;;5075597;28;20563;-80
2022/07/08 03:11:45;;;;;;;1.10;0.90;;;25.50;65.10;;;;;;5075450;28;20512;-81
2022/07/08 03:14:12;;;;;;;1.00;0.70;;;25.50;65.20;;;;;;5075463;28;20468;-80
2022/07/08 03:16:39;;;;;;;1.00;0.90;;;25.50;65.20;;;;;;5075480;28;21020;-81
2022/07/08 03:19:06;;;;;;;1.47;0.70;;;25.60;65.20;;;;;;5075286;28;20490;-81
2022/07/08 03:21:34;;;;;;;1.20;0.80;;;25.60;65.20;;;;;;5075289;28;20443;-80
2022/07/08 03:24:01;;;;;;;1.00;0.70;;;25.60;65.20;;;;;;5075253;28;20539;-84
2022/07/08 03:26:28;;;;;;;0.90;0.70;;;25.60;65.20;;;;;;5075558;28;20845;-81
2022/07/08 03:28:55;;;;;;;0.90;0.63;;;25.60;65.20;;;;;;5075069;28;20543;-80
2022/07/08 03:31:22;;;;;;;1.13;0.70;;;25.50;65.10;;;;;;5075197;28;20444;-81
2022/07/08 03:33:48;;;;;;;1.63;0.93;;;25.50;65.20;;;;;;5075127;28;20545;-81
2022/07/08 03:36:15;;;;;;;1.00;0.70;;;25.50;65.10;;;;;;5075025;28;21004;-80
2022/07/08 03:38:43;;;;;;;1.40;0.80;;;25.60;65.20;;;;;;5074973;28;20567;-81
2022/07/08 03:41:23;;;;;;;1.00;0.70;;;25.50;65.20;;;;;;5074760;28;20475;-80
2022/07/08 03:43:50;;;;;;;1.00;0.73;;;25.50;65.10;;;;;;5074888;28;20528;-80
2022/07/08 03:46:17;;;;;;;0.90;0.60;;;25.50;65.20;;;;;;5074826;28;20499;-81
2022/07/08 03:48:44;;;;;;;0.90;0.70;;;25.50;65.20;;;;;;5074844;28;20441;-81
2022/07/08 03:51:11;;;;;;;1.10;0.80;;;25.50;65.20;;;;;;5073694;28;20483;-81
2022/07/08 03:53:38;;;;;;;1.10;0.70;;;25.50;65.20;;;;;;5074804;28;20460;-80
2022/07/08 03:56:07;;;;;;;1.10;0.80;;;25.50;65.10;;;;;;5074668;28;20916;-80
2022/07/08 03:58:35;;;;;;;0.90;0.70;;;25.50;65.20;;;;;;5074476;28;20557;-80
2022/07/08 04:01:02;;;;;;;1.33;0.77;;;25.50;65.10;;;;;;5074571;28;20535;-80
2022/07/08 04:03:29;;;;;;;1.23;1.00;;;25.50;65.20;;;;;;5074516;28;20531;-80
2022/07/08 04:05:56;;;;;;;1.70;0.77;;;25.50;65.20;;;;;;5074613;28;20441;-80
2022/07/08 04:08:23;;;;;;;1.17;0.77;;;25.50;65.20;;;;;;5074513;28;20549;-81
2022/07/08 04:10:50;;;;;;;0.97;0.77;;;25.50;65.20;;;;;;5074442;28;20991;-80
2022/07/08 04:13:18;;;;;;;1.00;0.70;;;25.50;65.20;;;;;;5074512;28;20540;-80
2022/07/08 04:15:45;;;;;;;1.53;0.70;;;25.50;65.20;;;;;;5074221;28;20532;-80
2022/07/08 04:18:12;;;;;;;1.10;0.80;;;25.50;65.10;;;;;;5073967;28;20530;-81
2022/07/08 04:20:39;;;;;;;1.40;0.70;;;25.50;65.10;;;;;;5074195;28;20528;-80
2022/07/08 04:23:06;;;;;;;1.10;0.97;;;25.50;65.10;;;;;;5074272;28;20532;-82
2022/07/08 04:25:33;;;;;;;1.40;0.80;;;25.50;65.20;;;;;;5074240;28;20460;-81
2022/07/08 04:28:00;;;;;;;1.10;0.70;;;25.50;65.10;;;;;;5074112;28;20531;-80
2022/07/08 04:30:28;;;;;;;1.13;0.83;;;25.50;65.10;;;;;;5074154;28;20492;-81
2022/07/08 04:32:55;;;;;;;1.20;0.70;;;25.50;65.10;;;;;;5074036;28;20437;-80
2022/07/08 04:35:22;;;;;;;0.90;0.60;;;25.50;65.10;;;;;;5074086;28;20540;-81
2022/07/08 04:37:49;;;;;;;1.20;0.70;;;25.50;65.10;;;;;;5073682;28;20533;-81
2022/07/08 04:40:16;;;;;;;1.10;0.90;;;25.50;65.10;;;;;;5073540;28;20445;-81
2022/07/08 04:42:43;;;;;;;1.10;0.90;;;25.50;65.10;;;;;;5073771;28;20448;-81
2022/07/08 04:45:11;;;;;;;1.00;0.80;;;25.50;65.10;;;;;;5074026;28;20468;-80
2022/07/08 04:47:39;;;;;;;1.03;0.73;;;25.50;65.10;;;;;;5073834;28;20860;-81
2022/07/08 04:50:06;;;;;;;0.93;0.70;;;25.50;65.10;;;;;;5073742;28;20527;-81
2022/07/08 04:52:33;;;;;;;1.20;0.60;;;25.50;65.20;;;;;;5073677;28;20437;-81
2022/07/08 04:55:00;;;;;;;1.10;0.80;;;25.50;65.10;;;;;;5073586;28;20443;-84
2022/07/08 04:57:29;;;;;;;1.07;0.70;;;25.50;65.10;;;;;;5073554;28;20528;-80
2022/07/08 04:59:56;;;;;;;1.00;0.77;;;25.50;65.10;;;;;;5073356;28;20495;-81
2022/07/08 05:02:22;;;;;;;1.00;0.73;;;25.50;65.20;;;;;;5073206;28;20529;-81
2022/07/08 05:04:51;;;;;;;1.00;0.70;;;25.50;65.10;;;;;;5073553;28;20528;-80
2022/07/08 05:07:17;;;;;;;1.87;0.87;;;25.50;65.20;;;;;;5073325;28;21023;-81
2022/07/08 05:09:44;;;;;;;1.03;0.70;;;25.50;65.10;;;;;;5073467;28;20469;-81
2022/07/08 05:12:12;;;;;;;0.90;0.67;;;25.50;65.20;;;;;;5073334;28;20515;-83
2022/07/08 05:14:38;;;;;;;1.17;0.80;;;25.50;65.20;;;;;;5073512;28;20795;-81
2022/07/08 05:17:05;;;;;;;0.90;0.67;;;25.50;65.10;;;;;;5073280;28;20441;-81
2022/07/08 05:19:32;;;;;;;1.47;0.70;;;25.50;65.10;;;;;;5073229;28;20575;-81
2022/07/08 05:22:00;;;;;;;0.97;0.80;;;25.50;65.10;;;;;;5073192;28;20536;-81
2022/07/08 05:24:27;;;;;;;0.90;0.60;;;25.50;65.20;;;;;;5073179;28;20600;-81
2022/07/08 05:26:54;;;;;;;1.10;0.80;;;25.50;65.10;;;;;;5073203;28;20443;-80
2022/07/08 05:29:21;;;;;;;0.97;0.70;;;25.50;65.20;;;;;;5073122;28;20544;-81
2022/07/08 05:31:51;;;;;;;1.00;0.80;;;25.50;65.20;;;;;;5073096;28;20528;-91
2022/07/08 05:34:18;;;;;;;1.00;0.70;;;25.50;65.10;;;;;;5073211;28;20939;-81
2022/07/08 05:36:45;;;;;;;1.07;0.70;;;25.50;65.10;;;;;;5073206;28;20494;-80
2022/07/08 05:39:13;;;;;;;0.97;0.73;;;25.50;65.20;;;;;;5073120;28;20486;-80
2022/07/08 05:41:40;;;;;;;1.00;0.77;;;25.50;65.10;;;;;;5073171;28;20563;-80
2022/07/08 05:44:07;;;;;;;0.90;0.70;;;25.50;65.10;;;;;;5072868;28;20528;-80
2022/07/08 05:46:34;;;;;;;1.10;0.80;;;25.50;65.20;;;;;;5073151;28;20488;-90
2022/07/08 05:49:01;;;;;;;1.27;0.70;;;25.50;65.10;;;;;;5073341;28;20448;-81
2022/07/08 05:51:28;;;;;;;1.40;0.90;;;25.50;65.10;;;;;;5073082;28;20531;-80
2022/07/08 05:53:55;;;;;;;1.00;0.80;;;25.50;65.00;;;;;;5072992;28;20440;-80
2022/07/08 05:56:24;;;;;;;1.17;0.70;;;25.50;65.10;;;;;;5073168;28;20437;-80
2022/07/08 05:58:51;;;;;;;1.00;0.63;;;25.50;65.00;;;;;;5072919;28;20987;-80
2022/07/08 06:01:17;;;;;;;1.10;0.80;;;25.50;65.10;;;;;;5073038;28;20524;-80
2022/07/08 06:03:44;;;;;;;1.80;1.00;;;25.50;65.10;;;;;;5073238;28;20519;-89
2022/07/08 06:06:11;;;;;;;0.90;0.60;;;25.50;65.10;;;;;;5073135;28;20494;-80
2022/07/08 06:08:38;;;;;;;1.13;0.93;;;25.50;65.00;;;;;;5073132;28;20868;-80
2022/07/08 06:11:05;;;;;;;1.30;0.90;;;25.50;65.10;;;;;;5073244;28;20997;-80
2022/07/08 06:13:34;;;;;;;1.00;0.60;;;25.50;65.00;;;;;;5074331;28;20433;-80
2022/07/08 06:16:00;;;;;;;1.50;0.77;;;25.50;65.00;;;;;;5076864;28;20519;-80
2022/07/08 06:18:27;;;;;;;1.73;0.70;;;25.50;65.00;;;;;;5076758;28;20486;-80
2022/07/08 06:20:54;;;;;;;1.00;0.80;;;25.50;65.00;;;;;;5076765;28;20437;-79
2022/07/08 06:23:21;;;;;;;0.97;0.77;;;25.50;65.00;;;;;;5076466;28;20528;-80
2022/07/08 06:25:48;;;;;;;0.90;0.70;;;25.50;65.00;;;;;;5076453;28;20544;-90
2022/07/08 06:28:17;;;;;;;1.13;0.80;;;25.50;65.00;;;;;;5076564;28;20870;-80
2022/07/08 06:30:45;;;;;;;1.10;0.70;;;25.50;65.00;;;;;;5076600;28;20512;-90
2022/07/08 06:33:12;;;;;;;1.00;0.70;;;25.50;65.00;;;;;;5076561;28;20527;-80
2022/07/08 06:35:39;;;;;;;1.23;0.80;;;25.50;65.00;;;;;;5076195;28;20528;-80
2022/07/08 06:38:06;;;;;;;1.07;0.87;;;25.50;65.10;;;;;;5076126;28;20573;-82
2022/07/08 06:40:33;;;;;;;1.20;0.93;;;25.50;65.00;;;;;;5076064;28;20488;-82
2022/07/08 06:43:00;;;;;;;1.10;0.70;;;25.50;64.90;;;;;;5076270;28;20559;-81
2022/07/08 06:45:27;;;;;;;1.20;0.77;;;25.50;64.90;;;;;;5076241;28;20524;-81
2022/07/08 06:47:55;;;;;;;0.90;0.70;;;25.50;64.80;;;;;;5075996;28;20519;-82
2022/07/08 06:50:22;;;;;;;1.20;0.87;;;25.50;64.80;;;;;;5075926;28;20527;-81
2022/07/08 06:52:49;;;;;;;1.70;0.90;;;25.50;64.70;;;;;;5075895;28;20529;-82
2022/07/08 06:55:17;;;;;;;1.00;0.73;;;25.50;64.50;;;;;;5076031;28;20528;-82
2022/07/08 06:57:44;;;;;;;1.00;0.80;;;25.50;64.70;;;;;;5075830;28;20539;-81
2022/07/08 07:00:12;;;;;;;1.20;0.97;;;25.50;64.80;;;;;;5075552;28;20492;-81
2022/07/08 07:02:39;;;;;;;1.00;0.80;;;25.50;64.80;;;;;;5075729;28;20536;-81
2022/07/08 07:05:09;;;;;;;1.00;0.90;;;25.50;64.80;;;;;;5075517;28;20451;-81
2022/07/08 07:07:36;;;;;;;0.90;0.70;;;25.50;64.50;;;;;;5075967;28;20527;-83
2022/07/08 07:10:03;;;;;;;1.10;0.90;;;25.40;64.40;;;;;;5075805;28;20444;-81
2022/07/08 07:12:30;;;;;;;0.97;0.73;;;25.50;64.60;;;;;;5075758;28;20520;-81
2022/07/08 07:14:58;;;;;;;1.17;0.83;;;25.50;64.70;;;;;;5075553;28;20863;-91
2022/07/08 07:17:25;;;;;;;0.90;0.80;;;25.50;64.50;;;;;;5075577;28;20490;-81
2022/07/08 07:19:52;;;;;;;1.00;0.80;;;25.50;64.50;;;;;;5075332;28;20571;-81
2022/07/08 07:22:20;;;;;;;1.10;0.77;;;25.50;64.50;;;;;;5077161;28;20441;-81
2022/07/08 07:24:47;;;;;;;1.10;0.80;;;25.50;64.60;;;;;;5077241;28;20600;-82
2022/07/08 07:27:14;;;;;;;0.90;0.60;;;25.50;64.70;;;;;;5077979;28;20441;-81
2022/07/08 07:29:41;;;;;;;1.13;0.80;;;25.40;64.30;;;;;;5075332;28;20503;-81
2022/07/08 07:32:08;;;;;;;1.63;0.80;;;25.40;64.40;;;;;;5075167;28;21004;-81
2022/07/08 07:34:36;;;;;;;1.57;0.80;;;25.50;64.60;;;;;;5075272;28;20515;-81
2022/07/08 07:37:03;;;;;;;1.43;0.90;;;25.50;64.50;;;;;;5075153;28;20473;-81
2022/07/08 07:39:31;;;;;;;1.10;0.80;;;25.50;64.50;;;;;;5075190;28;20564;-92
2022/07/08 07:41:58;;;;;;;1.00;0.70;;;25.50;64.40;;;;;;5075071;28;20555;-81
2022/07/08 07:44:25;;;;;;;1.00;0.80;;;25.40;64.40;;;;;;5074855;28;20860;-81
2022/07/08 07:46:52;;;;;;;1.30;0.90;;;25.40;64.50;;;;;;5075095;28;20532;-81
2022/07/08 07:49:18;;;;;;;1.10;0.80;;;25.40;64.30;;;;;;5075151;28;20527;-81
2022/07/08 07:51:45;;;;;;;1.20;0.80;;;25.40;64.20;;;;;;5074829;28;20528;-80
2022/07/08 07:54:12;;;;;;;1.10;0.90;;;25.50;64.40;;;;;;5074913;28;20536;-89
2022/07/08 07:56:40;;;;;;;1.00;0.80;;;25.50;64.40;;;;;;5074929;28;20532;-88
2022/07/08 07:59:07;;;;;;;1.00;0.70;;;25.40;64.50;;;;;;5074668;28;20482;-80
2022/07/08 08:01:34;;;;;;;1.07;0.77;;;25.40;64.50;;;;;;5074979;28;21015;-80
2022/07/08 08:04:01;;;;;;;1.43;0.80;;;25.50;64.70;;;;;;5074633;28;20543;-81
2022/07/08 08:06:28;;;;;;;1.10;0.70;;;25.40;64.70;;;;;;5074730;28;20441;-91
2022/07/08 08:08:56;;;;;;;0.90;0.63;;;25.50;64.80;;;;;;5074578;28;20444;-80
2022/07/08 08:11:22;;;;;;;1.50;0.90;;;25.50;64.80;;;;;;5074587;28;20441;-81
2022/07/08 08:13:51;;;;;;;1.00;0.60;;;25.40;64.70;;;;;;5074546;28;20528;-91
2022/07/08 08:16:17;;;;;;;0.90;0.70;;;25.50;64.80;;;;;;5074484;28;20437;-80
2022/07/08 08:18:44;;;;;;;1.00;0.90;;;25.50;64.80;;;;;;5074263;28;20437;-80
2022/07/08 08:21:11;;;;;;;1.00;0.80;;;25.50;64.80;;;;;;5074201;28;20586;-81
2022/07/08 08:23:38;;;;;;;0.90;0.60;;;25.50;64.80;;;;;;5074037;28;20528;-82
2022/07/08 08:26:05;;;;;;;1.27;0.90;;;25.50;64.80;;;;;;5074135;28;20444;-81
2022/07/08 08:28:32;;;;;;;1.00;0.70;;;25.50;64.70;;;;;;5074170;28;20536;-91
2022/07/08 08:31:00;;;;;;;0.90;0.70;;;25.50;64.70;;;;;;5074273;28;20527;-81
2022/07/08 08:33:27;;;;;;;1.33;0.70;;;25.50;64.70;;;;;;5074117;28;20869;-81
2022/07/08 08:35:54;;;;;;;2.80;1.10;;;25.50;64.70;;;;;;5073468;28;20476;-81
2022/07/08 08:38:21;;;;;;;1.00;0.80;;;25.50;64.70;;;;;;5073988;28;20528;-82
2022/07/08 08:40:50;;;;;;;0.90;0.70;;;25.50;64.70;;;;;;5073610;28;20584;-81
2022/07/08 08:43:17;;;;;;;1.03;0.80;;;25.50;64.70;;;;;;5073959;28;20439;-82
2022/07/08 08:45:44;;;;;;;1.43;0.80;;;25.50;64.70;;;;;;5073613;28;20532;-81
2022/07/08 08:48:13;;;;;;;0.90;0.60;;;25.50;64.70;;;;;;5073665;28;20441;-81
2022/07/08 08:50:57;;;;;;;1.10;0.70;;;25.50;64.70;;;;;;5074023;28;20524;-91
2022/07/08 08:53:27;;;;;;;1.10;0.97;;;25.50;64.60;;;;;;5075073;28;20471;-81
2022/07/08 08:55:55;;;;;;;1.40;0.80;;;25.50;64.70;;;;;;5073803;28;20528;-81
2022/07/08 08:58:22;;;;;;;1.03;0.70;;;25.50;64.70;;;;;;5073441;28;20507;-81
2022/07/08 09:00:48;;;;;;;1.50;0.80;;;25.40;64.50;;;;;;5073439;28;20575;-81
2022/07/08 09:03:17;;;;;;;1.67;0.80;;;25.50;64.60;;;;;;5073546;28;20538;-84
2022/07/08 09:05:44;;;;;;;1.00;0.70;;;25.50;64.50;;;;;;5073307;28;20443;-81
2022/07/08 09:08:11;;;;;;;1.17;0.80;;;25.50;64.60;;;;;;5073601;28;20476;-81
2022/07/08 09:10:38;;;;;;;1.10;0.80;;;25.50;64.60;;;;;;5073650;28;20511;-90
2022/07/08 09:13:07;;;;;;;1.77;1.00;;;25.50;64.60;;;;;;5073418;28;20991;-82
2022/07/08 09:15:36;;;;;;;1.13;0.73;;;25.50;64.50;;;;;;5073878;28;20523;-82
2022/07/08 09:18:05;;;;;;;1.10;0.83;;;25.50;64.50;;;;;;5073249;28;20448;-82
2022/07/08 09:20:40;;;;;;;1.00;0.80;;;25.50;64.50;;;;;;5073618;28;20925;-81
2022/07/08 09:23:10;;;;;;;1.80;0.90;;;25.50;64.40;;;;;;5073938;28;20440;-83
2022/07/08 09:25:37;;;;;;;1.20;0.97;;;25.50;64.40;;;;;;5073267;28;21003;-82
2022/07/08 09:28:04;;;;;;;0.90;0.80;;;25.50;64.40;;;;;;5073569;28;20517;-81
2022/07/08 09:30:31;;;;;;;0.90;0.70;;;25.50;64.40;;;;;;5073461;28;21024;-81
2022/07/08 09:32:58;;;;;;;1.17;0.80;;;25.50;64.40;;;;;;5073317;28;20540;-81
2022/07/08 09:35:32;;;;;;;1.17;0.90;;;25.50;64.40;;;;;;5073258;28;20535;-81
2022/07/08 09:38:03;;;;;;;0.90;0.70;;;25.50;64.40;;;;;;5073515;28;20441;-82
2022/07/08 09:40:30;;;;;;;1.40;1.13;;;25.50;64.40;;;;;;5073230;28;20844;-91
2022/07/08 09:42:58;;;;;;;1.03;0.70;;;25.50;64.50;;;;;;5073048;28;20461;-81
2022/07/08 09:45:32;;;;;;;1.57;0.70;;;25.50;64.40;;;;;;5072947;28;20441;-81
2022/07/08 09:48:07;;;;;;;0.90;0.70;;;25.50;64.50;;;;;;5074012;28;20570;-81
2022/07/08 09:50:35;;;;;;;1.10;0.70;;;25.40;64.50;;;;;;5077556;28;20440;-82
2022/07/08 09:53:13;;;;;;;1.13;0.93;;;25.50;64.60;;;;;;5077540;28;20795;-81
2022/07/08 09:55:42;;;;;;;1.20;0.70;;;25.50;64.60;;;;;;5077394;28;20441;-91
2022/07/08 09:58:13;;;;;;;1.00;0.70;;;25.50;64.60;;;;;;5077547;28;20524;-81
2022/07/08 10:00:42;;;;;;;1.40;1.00;;;25.50;64.70;;;;;;5077569;28;20484;-81
2022/07/08 10:03:10;;;;;;;2.47;1.20;;;25.50;64.70;;;;;;5076982;28;20445;-81
2022/07/08 10:05:38;;;;;;;1.10;1.00;;;25.50;64.60;;;;;;5076789;28;20502;-81
2022/07/08 10:08:05;;;;;;;1.10;0.77;;;25.50;64.60;;;;;;5076832;28;20523;-81
2022/07/08 10:10:35;;;;;;;1.00;0.80;;;25.50;64.70;;;;;;5077193;28;20444;-80
2022/07/08 10:13:02;;;;;;;1.00;0.80;;;25.50;64.70;;;;;;5077103;28;20448;-90
2022/07/08 10:15:31;;;;;;;1.07;0.80;;;25.50;64.70;;;;;;5076697;28;20519;-80
2022/07/08 10:18:02;;;;;;;1.03;0.87;;;25.50;64.60;;;;;;5076815;28;20440;-80
2022/07/08 10:20:32;;;;;;;1.73;0.97;;;25.50;64.60;;;;;;5076448;28;20484;-80
2022/07/08 10:23:03;;;;;;;1.77;0.90;;;25.50;64.60;;;;;;5076467;28;20810;-81
2022/07/08 10:25:30;;;;;;;1.17;0.83;;;25.50;64.60;;;;;;5076534;28;20442;-81
2022/07/08 10:28:10;;;;;;;1.20;0.90;;;25.50;64.70;;;;;;5076697;28;20448;-80
2022/07/08 10:30:48;;;;;;;1.17;0.80;;;25.40;64.60;;;;;;5076555;28;20878;-80
2022/07/08 10:33:20;;;;;;;1.43;0.90;;;25.50;64.70;;;;;;5076829;28;20531;-80
2022/07/08 10:36:04;;;;;;;1.30;0.80;;;25.50;64.70;;;;;;5076371;28;20448;-80
2022/07/08 10:38:34;;;;;;;1.27;0.70;;;25.50;64.70;;;;;;5076679;28;20448;-80
2022/07/08 10:41:02;;;;;;;1.17;0.83;;;25.40;64.70;;;;;;5076512;28;20584;-90
2022/07/08 10:43:31;;;;;;;1.40;1.00;;;25.50;64.70;;;;;;5076624;28;20440;-80
2022/07/08 10:46:03;;;;;;;1.20;0.70;;;25.40;64.70;;;;;;5076845;28;20536;-89
2022/07/08 10:48:46;;;;;;;1.73;0.97;;;25.50;64.80;;;;;;5076906;28;20444;-80
2022/07/08 10:51:54;;;;;;;1.00;0.70;;;25.40;64.70;;;;;;5076630;28;20437;-83
2022/07/08 10:54:29;;;;;;;1.30;0.80;;;25.50;64.80;;;;;;5029027;28;20531;-80
2022/07/08 10:56:58;;;;;;;0.90;0.70;;;25.40;64.70;;;;;;5076020;28;20447;-80
2022/07/08 10:59:27;;;;;;;1.40;0.83;;;25.40;64.70;;;;;;5075731;28;20475;-81
2022/07/08 11:01:56;;;;;;;0.90;0.70;;;25.40;64.70;;;;;;5076259;28;20485;-81
2022/07/08 11:04:45;;;;;;;1.13;0.83;;;25.40;64.70;;;;;;5075861;28;20451;-90
2022/07/08 11:07:30;;;;;;;0.90;0.70;;;25.50;64.80;;;;;;5075003;28;20858;-81
2022/07/08 11:10:01;;;;;;;1.40;0.97;;;25.50;64.80;;;;;;5075625;28;20512;-81
2022/07/08 11:12:29;;;;;;;1.77;0.90;;;25.40;64.80;;;;;;5075699;28;20487;-90
2022/07/08 11:14:59;;;;;;;1.30;0.80;;;25.50;64.90;;;;;;5076068;28;20433;-91
2022/07/08 11:17:28;;;;;;;0.90;0.70;;;25.40;64.80;;;;;;5075664;28;20913;-80
2022/07/08 11:19:57;;;;;;;1.00;0.73;;;25.40;64.80;;;;;;5075551;28;20444;-84
2022/07/08 11:22:27;;;;;;;1.00;0.70;;;25.40;64.80;;;;;;5075616;28;20535;-80
2022/07/08 11:24:55;;;;;;;1.00;0.80;;;25.50;64.90;;;;;;5075290;28;20520;-80
2022/07/08 11:27:26;;;;;;;1.00;0.80;;;25.40;64.80;;;;;;5075608;28;20531;-80
2022/07/08 11:29:55;;;;;;;1.20;0.80;;;25.50;64.90;;;;;;5075818;28;20457;-81
2022/07/08 11:32:24;;;;;;;1.00;0.70;;;25.40;64.80;;;;;;5075736;28;20467;-80
2022/07/08 11:34:52;;;;;;;1.03;0.70;;;25.50;64.90;;;;;;5075623;28;20522;-80
2022/07/08 11:37:19;;;;;;;1.00;0.80;;;25.50;64.90;;;;;;5075303;28;20795;-90
2022/07/08 11:39:47;;;;;;;0.90;0.60;;;25.50;64.90;;;;;;5075148;28;20448;-80
2022/07/08 11:42:15;;;;;;;1.30;0.90;;;25.50;64.90;;;;;;5075160;28;20496;-80
2022/07/08 11:44:42;;;;;;;1.00;0.80;;;25.50;64.90;;;;;;5074948;28;20444;-80
2022/07/08 11:47:14;;;;;;;1.00;0.80;;;25.50;64.90;;;;;;5075380;28;20439;-80
2022/07/08 11:49:45;;;;;;;1.10;0.70;;;25.40;64.80;;;;;;5075803;28;20522;-80
2022/07/08 11:52:15;;;;;;;1.40;1.00;;;25.50;64.90;;;;;;5075369;28;20516;-80
2022/07/08 11:54:46;;;;;;;1.30;0.80;;;25.40;64.80;;;;;;5075951;28;20443;-91
2022/07/08 11:57:13;;;;;;;1.30;0.80;;;25.50;64.90;;;;;;5075911;28;20510;-80
2022/07/08 11:59:40;;;;;;;0.90;0.70;;;25.50;64.90;;;;;;5076616;28;20987;-80
2022/07/08 12:02:07;;;;;;;1.00;0.80;;;25.50;64.90;;;;;;5078576;28;20488;-82
2022/07/08 12:04:35;;;;;;;1.10;0.70;;;25.50;64.90;;;;;;5080595;28;20780;-80
2022/07/08 12:07:03;;;;;;;1.00;0.70;;;25.40;64.80;;;;;;5078781;28;20441;-79
2022/07/08 12:09:31;;;;;;;1.43;0.77;;;25.50;64.90;;;;;;5075090;28;20441;-80
2022/07/08 12:12:06;;;;;;;1.00;0.70;;;25.50;64.90;;;;;;5073711;28;20448;-90
2022/07/08 12:14:33;;;;;;;1.43;0.70;;;25.50;65.00;;;;;;5074489;28;20468;-80
2022/07/08 12:17:00;;;;;;;1.47;0.80;;;25.50;65.00;;;;;;5074720;28;20441;-90
2022/07/08 12:19:29;;;;;;;1.23;0.93;;;25.50;65.00;;;;;;5075075;28;20472;-80
2022/07/08 12:21:57;;;;;;;1.40;0.77;;;25.50;65.00;;;;;;5074577;28;20491;-80
2022/07/08 12:24:27;;;;;;;0.90;0.70;;;25.50;65.00;;;;;;5074265;28;20498;-80
2022/07/08 12:26:57;;;;;;;1.30;0.90;;;25.50;65.00;;;;;;5074292;28;20445;-81
2022/07/08 12:29:27;;;;;;;1.00;0.90;;;25.50;65.00;;;;;;5074286;28;20460;-81
2022/07/08 12:31:54;;;;;;;1.33;0.80;;;25.50;65.00;;;;;;5074221;28;20441;-81
2022/07/08 12:34:22;;;;;;;0.97;0.73;;;25.50;65.00;;;;;;5074132;28;20437;-85
2022/07/08 12:36:50;;;;;;;1.10;0.70;;;25.50;65.00;;;;;;5074250;28;20520;-81
2022/07/08 12:39:18;;;;;;;0.90;0.70;;;25.50;65.00;;;;;;5074248;28;20445;-81
2022/07/08 12:41:59;;;;;;;1.13;0.70;;;25.50;65.00;;;;;;5073765;28;20880;-81
2022/07/08 12:44:35;;;;;;;1.53;0.80;;;25.50;65.00;;;;;;5073777;28;20524;-81
2022/07/08 12:47:03;;;;;;;1.10;0.80;;;25.50;65.00;;;;;;5073754;28;20524;-81
2022/07/08 12:49:32;;;;;;;1.10;0.80;;;25.40;65.00;;;;;;5073977;28;20799;-81
2022/07/08 12:52:00;;;;;;;1.27;0.80;;;25.50;65.10;;;;;;5074063;28;20947;-82